EDHK/KEL METAR and TAF weather

Enter ICAO airport designator
Station Type Date Time Source
EDHK METAR 2020/08/11 19:20 UTC NOAA

EDHK 111920Z AUTO 09008KT 9999 // NCD 20/16 Q1021


Station Type Date Time Source
EDHK Decoded METAR 2020/08/11 19:20 UTC NOAA

Kiel / Holtenau Civilian, Germany (EDHK) 54-23N 010-10E
Aug 11, 2020 - 03:20 PM EDT / 2020.08.11 1920 UTC
Wind: from the E (090 degrees) at 9 MPH (8 KT):0
Visibility: greater than 7 mile(s):0
Temperature: 68 F (20 C)
Dew Point: 60 F (16 C)
Relative Humidity: 77%
Pressure (altimeter): 30.15 in. Hg (1021 hPa)
ob: EDHK 111920Z AUTO 09008KT 9999 // NCD 20/16 Q1021
cycle: 19

Station Type Date Time Source
EDHK TAF 2013/08/11 06:39 UTC NOAA

TAF EDHK 110633Z 1106/1118 24005KT 9999 SCT030
BECMG 1106/1109 25010KT
TEMPO 1106/1118 27015G25KT 4500 SHRA BKN012CB

Example: see airport list